createdAt,value
2022-11-21T00:01:17.931Z,10.70
2022-11-21T00:03:47.303Z,9.47
2022-11-21T00:06:15.968Z,10.10
2022-11-21T00:08:43.980Z,11.20
2022-11-21T00:11:12.009Z,10.15
2022-11-21T00:13:40.252Z,11.35
2022-11-21T00:16:10.199Z,10.90
2022-11-21T00:18:38.392Z,10.93
2022-11-21T00:21:09.624Z,10.73
2022-11-21T00:23:37.614Z,10.20
2022-11-21T00:26:07.091Z,10.85
2022-11-21T00:28:35.418Z,10.85
2022-11-21T00:31:03.549Z,10.25
2022-11-21T00:33:31.853Z,10.55
2022-11-21T00:35:59.736Z,9.60
2022-11-21T00:38:29.839Z,10.77
2022-11-21T00:41:00.370Z,10.23
2022-11-21T00:43:28.331Z,10.55
2022-11-21T00:45:56.239Z,10.37
2022-11-21T00:48:24.235Z,11.38
2022-11-21T00:50:52.178Z,11.77
2022-11-21T00:53:20.175Z,12.20
2022-11-21T00:55:49.621Z,10.83
2022-11-21T00:58:17.564Z,10.40
2022-11-21T01:00:45.552Z,10.80
2022-11-21T01:03:13.662Z,11.60
2022-11-21T01:05:43.289Z,11.32
2022-11-21T01:08:11.223Z,10.20
2022-11-21T01:10:39.115Z,10.27
2022-11-21T01:13:08.430Z,11.63
2022-11-21T01:15:36.326Z,11.03
2022-11-21T01:18:04.571Z,10.85
2022-11-21T01:20:32.526Z,10.75
2022-11-21T01:23:00.576Z,11.68
2022-11-21T01:25:28.453Z,10.75
2022-11-21T01:27:56.418Z,10.30
2022-11-21T01:30:25.648Z,9.73
2022-11-21T01:32:53.597Z,11.07
2022-11-21T01:35:21.464Z,10.82
2022-11-21T01:37:49.592Z,10.85
2022-11-21T01:40:17.998Z,11.20
2022-11-21T01:42:54.084Z,10.93
2022-11-21T01:45:55.923Z,10.18
2022-11-21T01:48:30.157Z,9.75
2022-11-21T01:51:01.178Z,10.15
2022-11-21T01:53:29.218Z,11.77
2022-11-21T01:55:57.193Z,11.20
2022-11-21T01:58:26.453Z,11.40
2022-11-21T02:00:59.422Z,9.93
2022-11-21T02:03:31.197Z,10.57
2022-11-21T02:05:59.609Z,9.63
2022-11-21T02:08:28.457Z,11.02
2022-11-21T02:11:07.426Z,9.10
2022-11-21T02:13:35.373Z,9.73
2022-11-21T02:16:05.178Z,10.10
2022-11-21T02:18:33.209Z,10.05
2022-11-21T02:21:09.308Z,8.75
2022-11-21T02:23:43.810Z,9.20
2022-11-21T02:26:14.177Z,9.63
2022-11-21T02:28:42.450Z,8.70
2022-11-21T02:31:10.398Z,8.15
2022-11-21T02:33:38.862Z,8.70
2022-11-21T02:36:37.143Z,8.40
2022-11-21T02:39:06.484Z,9.38
2022-11-21T02:41:38.782Z,8.50
2022-11-21T02:44:10.895Z,9.18
2022-11-21T02:46:48.716Z,8.23
2022-11-21T02:49:20.753Z,9.45
2022-11-21T02:51:49.388Z,9.43
2022-11-21T02:54:17.266Z,9.30
2022-11-21T02:56:46.603Z,9.30
2022-11-21T02:59:14.497Z,9.48
2022-11-21T03:01:45.136Z,9.83
2022-11-21T03:04:13.117Z,8.95
2022-11-21T03:06:41.169Z,9.32
2022-11-21T03:09:09.083Z,8.60
2022-11-21T03:11:37.215Z,8.10
2022-11-21T03:14:06.455Z,8.23
2022-11-21T03:16:34.486Z,7.60
2022-11-21T03:19:02.497Z,8.88
2022-11-21T03:21:30.433Z,8.55
2022-11-21T03:23:58.300Z,8.63
2022-11-21T03:26:26.241Z,9.40
2022-11-21T03:28:54.157Z,9.90
2022-11-21T03:31:23.548Z,9.38
2022-11-21T03:33:51.434Z,10.32
2022-11-21T03:36:19.437Z,9.60
2022-11-21T03:38:47.382Z,9.80
2022-11-21T03:41:29.185Z,7.70
2022-11-21T03:43:57.772Z,8.80
2022-11-21T03:46:29.633Z,8.38
2022-11-21T03:48:58.893Z,7.72
2022-11-21T03:51:27.120Z,9.32
2022-11-21T03:53:55.944Z,8.43
2022-11-21T03:56:28.417Z,8.98
2022-11-21T03:58:56.660Z,9.17
2022-11-21T04:01:24.878Z,9.43
2022-11-21T04:03:54.292Z,9.90
2022-11-21T04:06:23.359Z,9.67
2022-11-21T04:08:51.797Z,9.83
2022-11-21T04:11:23.470Z,10.07
2022-11-21T04:13:51.515Z,8.02
2022-11-21T04:16:19.585Z,8.55
2022-11-21T04:18:48.188Z,9.73
2022-11-21T04:21:17.444Z,8.77
2022-11-21T04:23:45.390Z,9.68
2022-11-21T04:26:13.304Z,9.27
2022-11-21T04:28:41.287Z,9.77
2022-11-21T04:31:11.452Z,10.18
2022-11-21T04:33:39.822Z,8.85
2022-11-21T04:36:08.454Z,9.70
2022-11-21T04:38:38.262Z,8.30
2022-11-21T04:41:06.226Z,8.90
2022-11-21T04:43:34.190Z,8.73
2022-11-21T04:46:02.170Z,8.50
2022-11-21T04:48:30.036Z,9.30
2022-11-21T04:50:58.034Z,8.23
2022-11-21T04:53:25.920Z,8.87
2022-11-21T04:55:55.375Z,8.40
2022-11-21T04:58:23.286Z,8.95
2022-11-21T05:00:51.661Z,8.90
2022-11-21T05:03:19.637Z,8.70
2022-11-21T05:05:47.608Z,8.55
2022-11-21T05:08:15.540Z,8.30
2022-11-21T05:11:02.099Z,8.13
2022-11-21T05:13:31.597Z,8.90
2022-11-21T05:15:59.910Z,7.00
2022-11-21T05:18:28.268Z,8.40
2022-11-21T05:20:56.313Z,8.20
2022-11-21T05:23:24.463Z,7.97
2022-11-21T05:25:52.509Z,8.20
2022-11-21T05:28:20.733Z,8.98
2022-11-21T05:30:50.099Z,8.38
2022-11-21T05:33:18.153Z,9.20
2022-11-21T05:35:46.148Z,9.23
2022-11-21T05:38:14.505Z,8.20
2022-11-21T05:40:42.474Z,8.95
2022-11-21T05:43:30.461Z,9.73
2022-11-21T05:46:00.128Z,8.80
2022-11-21T05:48:28.189Z,8.93
2022-11-21T05:50:56.378Z,9.65
2022-11-21T05:53:24.485Z,9.63
2022-11-21T05:55:52.844Z,10.02
2022-11-21T05:58:21.318Z,10.32
2022-11-21T06:00:49.280Z,10.27
2022-11-21T06:03:30.880Z,10.93
2022-11-21T06:06:05.111Z,10.25
2022-11-21T06:08:35.638Z,9.25
2022-11-21T06:11:05.111Z,10.73
2022-11-21T06:13:33.860Z,9.18
2022-11-21T06:16:03.998Z,8.98
2022-11-21T06:18:37.872Z,10.38
2022-11-21T06:21:08.679Z,10.10
2022-11-21T06:23:37.268Z,9.35
2022-11-21T06:26:06.617Z,10.73
2022-11-21T06:28:36.296Z,10.50
2022-11-21T06:31:05.175Z,11.80
2022-11-21T06:33:37.547Z,11.30
2022-11-21T06:36:06.655Z,9.87
2022-11-21T06:38:34.805Z,10.30
2022-11-21T06:41:06.633Z,10.77
2022-11-21T06:43:35.165Z,10.20
2022-11-21T06:46:04.350Z,9.50
2022-11-21T06:48:34.607Z,11.35
2022-11-21T06:51:06.435Z,10.55
2022-11-21T06:53:34.905Z,10.33
2022-11-21T06:56:03.024Z,10.10
2022-11-21T06:58:31.207Z,9.27
2022-11-21T07:00:59.987Z,9.73
2022-11-21T07:03:27.957Z,11.23
2022-11-21T07:05:59.646Z,10.00
2022-11-21T07:08:28.156Z,10.27
2022-11-21T07:11:23.182Z,10.95
2022-11-21T07:13:44.396Z,10.25
2022-11-21T07:16:14.840Z,10.50
2022-11-21T07:18:44.467Z,10.05
2022-11-21T07:21:13.775Z,11.23
2022-11-21T07:23:41.805Z,11.55
2022-11-21T07:26:11.931Z,10.77
2022-11-21T07:28:40.098Z,10.00
2022-11-21T07:31:13.179Z,11.25
2022-11-21T07:33:43.180Z,12.15
2022-11-21T07:36:11.467Z,11.10
2022-11-21T07:38:42.021Z,11.27
2022-11-21T07:41:10.521Z,10.73
2022-11-21T07:43:38.549Z,10.80
2022-11-21T07:46:06.527Z,10.65
2022-11-21T07:48:34.409Z,11.47
2022-11-21T07:51:05.508Z,12.10
2022-11-21T07:53:33.418Z,10.90
2022-11-21T07:56:02.905Z,11.75
2022-11-21T07:58:30.907Z,12.00
2022-11-21T08:00:58.777Z,10.90
2022-11-21T08:03:26.756Z,12.15
2022-11-21T08:05:54.769Z,11.68
2022-11-21T08:08:22.682Z,10.93
2022-11-21T08:10:51.473Z,11.63
2022-11-21T08:13:20.857Z,10.93
2022-11-21T08:15:48.747Z,12.18
2022-11-21T08:18:19.970Z,12.18
2022-11-21T08:20:48.178Z,11.88
2022-11-21T08:23:16.790Z,11.40
2022-11-21T08:25:45.327Z,12.05
2022-11-21T08:28:14.043Z,11.20
2022-11-21T08:30:43.409Z,11.85
2022-11-21T08:33:11.373Z,13.00
2022-11-21T08:35:39.404Z,12.03
2022-11-21T08:38:07.851Z,11.98
2022-11-21T08:40:36.842Z,12.40
2022-11-21T08:43:06.753Z,12.73
2022-11-21T08:45:35.845Z,13.73
2022-11-21T08:48:05.878Z,12.60
2022-11-21T08:50:33.834Z,11.83
2022-11-21T08:53:02.455Z,11.52
2022-11-21T08:55:30.657Z,11.63
2022-11-21T08:57:58.576Z,12.57
2022-11-21T09:00:26.801Z,11.68
2022-11-21T09:02:54.739Z,12.70
2022-11-21T09:05:24.653Z,11.70
2022-11-21T09:07:57.420Z,12.33
2022-11-21T09:10:25.559Z,12.45
2022-11-21T09:12:53.530Z,12.52
2022-11-21T09:15:41.755Z,11.30
2022-11-21T09:18:09.713Z,11.98
2022-11-21T09:20:42.329Z,11.88
2022-11-21T09:23:12.077Z,12.07
2022-11-21T09:25:40.187Z,12.20
2022-11-21T09:28:10.813Z,12.45
2022-11-21T09:30:39.386Z,12.68
2022-11-21T09:33:09.161Z,13.65
2022-11-21T09:35:37.227Z,15.18
2022-11-21T09:38:07.370Z,13.88
2022-11-21T09:40:36.836Z,15.07
2022-11-21T09:43:19.729Z,12.70
2022-11-21T09:45:49.676Z,12.68
2022-11-21T09:48:22.693Z,12.85
2022-11-21T09:50:55.462Z,12.10
2022-11-21T09:53:29.138Z,11.45
2022-11-21T09:55:59.905Z,12.53
2022-11-21T09:58:33.573Z,12.45
2022-11-21T10:01:01.809Z,12.82
2022-11-21T10:03:32.690Z,12.95
2022-11-21T10:06:04.769Z,11.95
2022-11-21T10:08:44.169Z,12.15
2022-11-21T10:11:22.484Z,14.00
2022-11-21T10:14:08.120Z,13.27
2022-11-21T10:16:45.570Z,12.15
2022-11-21T10:19:34.734Z,12.65
2022-11-21T10:22:18.865Z,12.98
2022-11-21T10:24:56.256Z,12.77
2022-11-21T10:27:32.699Z,13.30
2022-11-21T10:30:05.523Z,13.40
2022-11-21T10:32:38.597Z,13.38
2022-11-21T10:35:16.578Z,14.07
2022-11-21T10:37:49.392Z,14.65
2022-11-21T10:40:34.462Z,15.45
2022-11-21T10:43:27.521Z,15.25
2022-11-21T10:45:54.803Z,13.63
2022-11-21T10:48:22.787Z,14.47
2022-11-21T10:51:09.007Z,15.35
2022-11-21T10:53:54.247Z,14.43
2022-11-21T10:56:26.417Z,15.75
2022-11-21T10:58:57.166Z,16.63
2022-11-21T11:01:30.917Z,15.55
2022-11-21T11:04:28.182Z,15.70
2022-11-21T11:06:58.128Z,15.25
2022-11-21T11:09:29.396Z,14.50
2022-11-21T11:12:25.249Z,15.45
2022-11-21T11:14:55.946Z,16.30
2022-11-21T11:17:29.374Z,15.13
2022-11-21T11:20:07.103Z,15.18
2022-11-21T11:22:35.250Z,14.13
2022-11-21T11:25:06.064Z,14.70
2022-11-21T11:27:38.603Z,15.38
2022-11-21T11:30:08.761Z,14.32
2022-11-21T11:32:41.474Z,13.98
2022-11-21T11:35:22.557Z,13.73
2022-11-21T11:38:03.628Z,14.50
2022-11-21T11:40:36.901Z,15.02
2022-11-21T11:43:41.137Z,14.18
2022-11-21T11:46:36.948Z,13.43
2022-11-21T11:49:25.121Z,13.50
2022-11-21T11:51:56.074Z,14.90
2022-11-21T11:54:29.566Z,13.98
2022-11-21T11:56:59.878Z,13.80
2022-11-21T11:59:33.826Z,15.30
2022-11-21T12:02:11.838Z,14.70
2022-11-21T12:04:47.127Z,15.45
2022-11-21T12:10:17.567Z,16.05
2022-11-21T12:12:50.081Z,15.40
2022-11-21T12:16:03.283Z,16.00
2022-11-21T12:18:40.394Z,15.32
2022-11-21T12:21:13.952Z,15.20
2022-11-21T12:23:47.469Z,15.27
2022-11-21T12:26:37.573Z,16.05
2022-11-21T12:29:22.495Z,16.33
2022-11-21T12:32:05.434Z,17.17
2022-11-21T12:34:48.989Z,16.83
2022-11-21T12:37:29.414Z,17.92
2022-11-21T12:40:05.067Z,18.60
2022-11-21T12:42:51.582Z,18.08
2022-11-21T12:45:32.341Z,16.15
2022-11-21T12:48:33.543Z,14.68
2022-11-21T12:51:39.584Z,17.30
2022-11-21T12:54:34.391Z,17.05
2022-11-21T12:57:11.434Z,15.98
2022-11-21T12:59:51.730Z,15.95
2022-11-21T13:02:31.443Z,16.52
2022-11-21T13:05:03.981Z,16.27
2022-11-21T13:07:33.285Z,16.15
2022-11-21T13:10:03.766Z,16.63
2022-11-21T13:12:41.162Z,15.80
2022-11-21T13:15:20.445Z,15.27
2022-11-21T13:17:54.729Z,15.70
2022-11-21T13:20:32.491Z,16.07
2022-11-21T13:23:01.794Z,16.10
2022-11-21T13:25:53.878Z,16.20
2022-11-21T13:28:38.248Z,16.83
2022-11-21T13:31:29.191Z,16.88
2022-11-21T13:33:57.344Z,15.80
2022-11-21T13:36:43.403Z,16.38
2022-11-21T13:39:36.608Z,15.30
2022-11-21T13:42:30.393Z,16.30
2022-11-21T13:44:59.034Z,15.15
2022-11-21T13:47:58.836Z,16.67
2022-11-21T13:50:38.164Z,17.07
2022-11-21T13:53:20.088Z,15.93
2022-11-21T13:55:57.995Z,15.00
2022-11-21T13:58:43.000Z,16.50
2022-11-21T14:01:34.817Z,15.55
2022-11-21T14:04:38.341Z,15.93
2022-11-21T14:07:25.238Z,16.20
2022-11-21T14:09:56.727Z,15.10
2022-11-21T14:12:33.636Z,15.40
2022-11-21T14:15:18.271Z,16.27
2022-11-21T14:17:49.723Z,15.30
2022-11-21T14:20:21.509Z,15.90
2022-11-21T14:22:57.421Z,16.02
2022-11-21T14:25:32.474Z,13.40
2022-11-21T14:28:01.368Z,14.93
2022-11-21T14:30:31.819Z,14.85
2022-11-21T14:33:24.344Z,15.55
2022-11-21T14:35:55.489Z,16.73
2022-11-21T14:38:24.308Z,15.73
2022-11-21T14:41:17.297Z,17.65
2022-11-21T14:43:45.233Z,17.55
2022-11-21T14:46:15.645Z,15.35
2022-11-21T14:48:44.013Z,16.73
2022-11-21T14:51:15.964Z,15.85
2022-11-21T14:53:47.170Z,17.40
2022-11-21T14:56:23.663Z,17.55
2022-11-21T14:58:53.097Z,17.08
2022-11-21T15:01:22.993Z,15.45
2022-11-21T15:03:58.067Z,17.05
2022-11-21T15:06:27.101Z,16.80
2022-11-21T15:10:11.376Z,17.80
2022-11-21T15:11:52.409Z,17.27
2022-11-21T15:14:25.254Z,15.23
2022-11-21T15:16:57.719Z,14.82
2022-11-21T15:19:27.783Z,15.35
2022-11-21T15:21:58.150Z,15.05
2022-11-21T15:24:32.371Z,14.65
2022-11-21T15:27:01.735Z,15.43
2022-11-21T15:29:31.423Z,15.82
2022-11-21T15:32:15.839Z,16.00
2022-11-21T15:34:44.437Z,15.05
2022-11-21T15:37:16.532Z,22.50
2022-11-21T15:39:48.338Z,40.08
2022-11-21T15:42:37.005Z,18.67
2022-11-21T15:45:23.241Z,29.35
2022-11-21T15:47:51.214Z,24.73
2022-11-21T15:50:19.143Z,19.88
2022-11-21T15:52:48.762Z,18.33
2022-11-21T15:55:20.238Z,18.20
2022-11-21T15:57:49.698Z,22.52
2022-11-21T16:00:18.744Z,15.80
2022-11-21T16:02:47.453Z,16.08
2022-11-21T16:05:16.533Z,17.10
2022-11-21T16:07:44.536Z,14.13
2022-11-21T16:10:19.871Z,15.32
2022-11-21T16:12:52.132Z,18.65
2022-11-21T16:15:20.127Z,17.23
2022-11-21T16:17:48.119Z,14.85
2022-11-21T16:20:16.327Z,20.60
2022-11-21T16:22:47.695Z,16.27
2022-11-21T16:25:17.205Z,14.73
2022-11-21T16:27:45.143Z,16.25
2022-11-21T16:30:15.596Z,15.23
2022-11-21T16:32:43.566Z,15.00
2022-11-21T16:35:11.478Z,15.30
2022-11-21T16:37:39.988Z,16.05
2022-11-21T16:40:09.173Z,14.30
2022-11-21T16:42:37.268Z,15.43
2022-11-21T16:45:05.919Z,15.10
2022-11-21T16:47:36.857Z,16.73
2022-11-21T16:50:05.556Z,16.52
2022-11-21T16:52:35.572Z,15.80
2022-11-21T16:55:04.816Z,18.08
2022-11-21T16:57:35.306Z,16.55
2022-11-21T17:00:03.614Z,17.50
2022-11-21T17:02:31.773Z,16.67
2022-11-21T17:05:01.351Z,16.67
2022-11-21T17:07:29.401Z,15.00
2022-11-21T17:09:57.350Z,15.30
2022-11-21T17:12:25.497Z,15.00
2022-11-21T17:14:54.955Z,15.85
2022-11-21T17:17:23.042Z,15.48
2022-11-21T17:19:51.055Z,15.45
2022-11-21T17:22:24.613Z,14.70
2022-11-21T17:24:53.565Z,16.20
2022-11-21T17:27:22.012Z,16.35
2022-11-21T17:29:50.093Z,16.45
2022-11-21T17:32:18.767Z,15.85
2022-11-21T17:34:46.843Z,15.98
2022-11-21T17:37:14.925Z,16.73
2022-11-21T17:39:44.232Z,17.30
2022-11-21T17:42:12.135Z,15.88
2022-11-21T17:44:40.101Z,14.45
2022-11-21T17:47:08.074Z,15.18
2022-11-21T17:49:37.231Z,13.55
2022-11-21T17:52:07.070Z,14.00
2022-11-21T17:54:35.173Z,14.27
2022-11-21T17:57:04.727Z,11.90
2022-11-21T17:59:34.867Z,14.75
2022-11-21T18:02:03.105Z,14.93
2022-11-21T18:04:31.357Z,17.95
2022-11-21T18:06:59.568Z,15.40
2022-11-21T18:09:28.698Z,15.90
2022-11-21T18:11:57.777Z,15.20
2022-11-21T18:14:27.881Z,16.80
2022-11-21T18:16:56.597Z,13.27
2022-11-21T18:19:24.555Z,17.43
2022-11-21T18:21:52.913Z,14.88
2022-11-21T18:24:20.968Z,17.87
2022-11-21T18:26:49.117Z,17.20
2022-11-21T18:32:07.338Z,16.67
2022-11-21T18:34:35.387Z,15.45
2022-11-21T18:37:04.339Z,14.68
2022-11-21T18:39:32.591Z,13.80
2022-11-21T18:42:01.234Z,14.47
2022-11-21T18:44:29.253Z,12.82
2022-11-21T18:46:57.304Z,13.47
2022-11-21T18:49:27.012Z,14.50
2022-11-21T18:51:55.505Z,14.02
2022-11-21T18:54:23.726Z,13.52
2022-11-21T18:56:51.789Z,15.27
2022-11-21T18:59:19.755Z,13.60
2022-11-21T19:01:47.751Z,15.05
2022-11-21T19:04:15.868Z,14.35
2022-11-21T19:06:45.165Z,13.95
2022-11-21T19:09:14.857Z,16.17
2022-11-21T19:11:42.852Z,16.40
2022-11-21T19:14:10.924Z,17.42
2022-11-21T19:16:38.816Z,16.35
2022-11-21T19:21:56.880Z,15.27
2022-11-21T19:24:24.826Z,15.05
2022-11-21T19:26:52.814Z,15.30
2022-11-21T19:29:20.981Z,15.07
2022-11-21T19:31:48.899Z,14.23
2022-11-21T19:34:17.742Z,15.75
2022-11-21T19:36:46.554Z,16.15
2022-11-21T19:39:17.403Z,15.77
2022-11-21T19:41:45.591Z,15.98
2022-11-21T19:44:13.765Z,13.80
2022-11-21T19:46:41.775Z,17.30
2022-11-21T19:49:12.076Z,14.60
2022-11-21T19:51:41.542Z,14.98
2022-11-21T19:54:11.150Z,17.33
2022-11-21T19:56:40.604Z,14.57
2022-11-21T19:59:11.284Z,18.75
2022-11-21T20:01:40.121Z,12.68
2022-11-21T20:04:08.215Z,14.57
2022-11-21T20:06:38.266Z,13.77
2022-11-21T20:09:07.930Z,14.73
2022-11-21T20:11:36.202Z,13.30
2022-11-21T20:14:06.023Z,15.83
2022-11-21T20:16:36.201Z,15.88
2022-11-21T20:19:07.351Z,16.52
2022-11-21T20:21:35.899Z,14.77
2022-11-21T20:24:04.754Z,14.07
2022-11-21T20:26:33.353Z,14.40
2022-11-21T20:29:01.496Z,14.07
2022-11-21T20:31:33.190Z,16.73
2022-11-21T20:34:04.475Z,14.80
2022-11-21T20:36:36.636Z,16.85
2022-11-21T20:39:06.754Z,17.35
2022-11-21T20:41:36.208Z,28.77
2022-11-21T20:46:55.232Z,22.92
2022-11-21T20:49:23.231Z,27.08
2022-11-21T20:54:40.019Z,17.80
2022-11-21T20:57:13.268Z,14.05
2022-11-21T20:59:43.096Z,21.17
2022-11-21T21:02:15.702Z,19.90
2022-11-21T21:04:43.718Z,15.20
2022-11-21T21:07:11.720Z,12.68
2022-11-21T21:09:39.775Z,15.43
2022-11-21T21:12:08.073Z,13.05
2022-11-21T21:14:36.361Z,13.85
2022-11-21T21:17:04.394Z,14.80
2022-11-21T21:19:33.771Z,15.25
2022-11-21T21:22:01.788Z,13.20
2022-11-21T21:24:29.840Z,14.15
2022-11-21T21:26:57.779Z,14.40
2022-11-21T21:29:27.199Z,14.50
2022-11-21T21:31:55.481Z,13.95
2022-11-21T21:34:23.950Z,12.90
2022-11-21T21:36:55.209Z,13.40
2022-11-21T21:39:23.213Z,13.82
2022-11-21T21:41:51.277Z,13.10
2022-11-21T21:44:19.775Z,14.80
2022-11-21T21:46:47.693Z,13.87
2022-11-21T21:49:15.788Z,13.88
2022-11-21T21:51:43.705Z,14.20
2022-11-21T21:54:19.030Z,12.40
2022-11-21T21:56:47.548Z,12.65
2022-11-21T21:59:17.876Z,14.63
2022-11-21T22:01:46.023Z,15.43
2022-11-21T22:04:14.097Z,14.25
2022-11-21T22:06:42.072Z,14.93
2022-11-21T22:09:10.385Z,14.38
2022-11-21T22:11:40.192Z,14.95
2022-11-21T22:14:12.430Z,14.63
2022-11-21T22:16:41.380Z,19.08
2022-11-21T22:19:10.017Z,14.85
2022-11-21T22:21:38.923Z,14.20
2022-11-21T22:24:28.509Z,14.75
2022-11-21T22:26:58.041Z,12.45
2022-11-21T22:29:26.435Z,15.87
2022-11-21T22:31:54.371Z,14.95
2022-11-21T22:34:25.201Z,12.30
2022-11-21T22:36:53.173Z,14.65
2022-11-21T22:39:21.051Z,14.23
2022-11-21T22:41:49.086Z,12.82
2022-11-21T22:44:19.072Z,12.88
2022-11-21T22:46:47.056Z,11.75
2022-11-21T22:49:15.404Z,13.67
2022-11-21T22:51:44.853Z,12.50
2022-11-21T22:54:13.080Z,12.70
2022-11-21T22:56:41.146Z,12.20
2022-11-21T22:59:09.069Z,13.00
2022-11-21T23:01:38.529Z,13.18
2022-11-21T23:04:06.532Z,12.77
2022-11-21T23:06:34.541Z,12.27
2022-11-21T23:09:02.435Z,13.13
2022-11-21T23:11:36.269Z,12.85
2022-11-21T23:14:07.833Z,11.55
2022-11-21T23:16:35.810Z,12.80
2022-11-21T23:19:05.239Z,12.67
2022-11-21T23:21:33.381Z,12.87
2022-11-21T23:24:01.347Z,12.87
2022-11-21T23:26:29.279Z,12.82
2022-11-21T23:28:57.217Z,12.90
2022-11-21T23:31:25.172Z,13.82
2022-11-21T23:33:53.188Z,13.02
2022-11-21T23:36:22.523Z,12.32
2022-11-21T23:38:50.401Z,12.75
2022-11-21T23:41:18.313Z,12.75
2022-11-21T23:43:46.253Z,12.17
2022-11-21T23:46:14.181Z,12.63
2022-11-21T23:48:42.089Z,12.93
2022-11-21T23:51:10.531Z,12.55
2022-11-21T23:53:39.844Z,13.85
2022-11-21T23:56:07.956Z,12.35
2022-11-21T23:58:36.100Z,13.02
